sensor_id;sensor_type;location;lat;lon;timestamp;pressure;altitude;pressure_sealevel;temperature;humidity
79791;BME280;69278;52.220;5.172;2023-07-09T00:01:26;101716.44;;;25.45;55.60
79791;BME280;69278;52.220;5.172;2023-07-09T00:03:52;101703.31;;;25.42;55.37
79791;BME280;69278;52.220;5.172;2023-07-09T00:06:20;101694.00;;;25.32;55.80
79791;BME280;69278;52.220;5.172;2023-07-09T00:08:48;101700.44;;;25.37;55.87
79791;BME280;69278;52.220;5.172;2023-07-09T00:11:16;101708.53;;;25.37;56.02
79791;BME280;69278;52.220;5.172;2023-07-09T00:13:42;101695.06;;;25.31;55.84
79791;BME280;69278;52.220;5.172;2023-07-09T00:16:24;101707.72;;;25.30;56.73
79791;BME280;69278;52.220;5.172;2023-07-09T00:18:51;101699.84;;;25.22;56.19
79791;BME280;69278;52.220;5.172;2023-07-09T00:21:19;101692.00;;;25.14;56.05
79791;BME280;69278;52.220;5.172;2023-07-09T00:23:46;101710.25;;;25.19;56.09
79791;BME280;69278;52.220;5.172;2023-07-09T00:26:16;101703.22;;;25.11;56.32
79791;BME280;69278;52.220;5.172;2023-07-09T00:28:43;101721.44;;;25.16;56.44
79791;BME280;69278;52.220;5.172;2023-07-09T00:31:15;101707.75;;;25.11;56.98
79791;BME280;69278;52.220;5.172;2023-07-09T00:33:43;101710.88;;;25.08;56.07
79791;BME280;69278;52.220;5.172;2023-07-09T00:36:14;101722.25;;;25.10;56.76
79791;BME280;69278;52.220;5.172;2023-07-09T00:38:41;101720.19;;;25.05;56.52
79791;BME280;69278;52.220;5.172;2023-07-09T00:41:18;101722.72;;;25.07;56.84
79791;BME280;69278;52.220;5.172;2023-07-09T00:43:47;101715.25;;;24.95;57.14
79791;BME280;69278;52.220;5.172;2023-07-09T00:48:49;101738.88;;;25.00;56.75
79791;BME280;69278;52.220;5.172;2023-07-09T00:51:19;101739.09;;;24.98;56.65
79791;BME280;69278;52.220;5.172;2023-07-09T00:53:49;101733.09;;;24.96;56.93
79791;BME280;69278;52.220;5.172;2023-07-09T00:58:52;101730.41;;;24.90;57.43
79791;BME280;69278;52.220;5.172;2023-07-09T01:01:20;101721.28;;;24.84;57.45
79791;BME280;69278;52.220;5.172;2023-07-09T01:03:51;101712.78;;;24.81;57.52
79791;BME280;69278;52.220;5.172;2023-07-09T01:06:25;101708.84;;;24.77;57.46
79791;BME280;69278;52.220;5.172;2023-07-09T01:08:56;101723.75;;;24.86;57.53
79791;BME280;69278;52.220;5.172;2023-07-09T01:11:23;101722.31;;;24.83;57.40
79791;BME280;69278;52.220;5.172;2023-07-09T01:13:51;101724.16;;;24.83;57.54
79791;BME280;69278;52.220;5.172;2023-07-09T01:16:19;101723.34;;;24.82;57.28
79791;BME280;69278;52.220;5.172;2023-07-09T01:18:51;101729.16;;;24.79;57.46
79791;BME280;69278;52.220;5.172;2023-07-09T01:21:18;101720.22;;;24.72;57.55
79791;BME280;69278;52.220;5.172;2023-07-09T01:23:46;101699.06;;;24.56;57.64
79791;BME280;69278;52.220;5.172;2023-07-09T01:26:18;101732.63;;;24.73;57.73
79791;BME280;69278;52.220;5.172;2023-07-09T01:28:45;101723.09;;;24.64;57.99
79791;BME280;69278;52.220;5.172;2023-07-09T01:31:14;101721.66;;;24.68;57.89
79791;BME280;69278;52.220;5.172;2023-07-09T01:33:42;101697.63;;;24.47;58.36
79791;BME280;69278;52.220;5.172;2023-07-09T01:36:13;101695.94;;;24.39;58.38
79791;BME280;69278;52.220;5.172;2023-07-09T01:38:41;101734.09;;;24.63;58.19
79791;BME280;69278;52.220;5.172;2023-07-09T01:41:08;101734.94;;;24.63;58.31
79791;BME280;69278;52.220;5.172;2023-07-09T01:43:37;101737.63;;;24.63;58.17
79791;BME280;69278;52.220;5.172;2023-07-09T01:46:04;101737.19;;;24.60;58.22
79791;BME280;69278;52.220;5.172;2023-07-09T01:48:31;101739.91;;;24.60;58.06
79791;BME280;69278;52.220;5.172;2023-07-09T01:50:59;101749.84;;;24.59;58.38
79791;BME280;69278;52.220;5.172;2023-07-09T01:53:26;101723.09;;;24.45;58.32
79791;BME280;69278;52.220;5.172;2023-07-09T01:55:52;101732.03;;;24.58;58.00
79791;BME280;69278;52.220;5.172;2023-07-09T01:58:21;101754.59;;;24.57;57.79
79791;BME280;69278;52.220;5.172;2023-07-09T02:00:51;101749.63;;;24.54;57.86
79791;BME280;69278;52.220;5.172;2023-07-09T02:03:17;101751.06;;;24.44;58.00
79791;BME280;69278;52.220;5.172;2023-07-09T02:05:44;101753.34;;;24.47;58.07
79791;BME280;69278;52.220;5.172;2023-07-09T02:08:10;101753.75;;;24.44;58.12
79791;BME280;69278;52.220;5.172;2023-07-09T02:10:37;101755.00;;;24.41;58.29
79791;BME280;69278;52.220;5.172;2023-07-09T02:13:03;101721.59;;;24.22;57.98
79791;BME280;69278;52.220;5.172;2023-07-09T02:15:29;101745.03;;;24.35;58.46
79791;BME280;69278;52.220;5.172;2023-07-09T02:17:57;101740.88;;;24.32;58.19
79791;BME280;69278;52.220;5.172;2023-07-09T02:20:25;101736.34;;;24.26;58.30
79791;BME280;69278;52.220;5.172;2023-07-09T02:22:52;101720.56;;;24.17;58.43
79791;BME280;69278;52.220;5.172;2023-07-09T02:25:19;101745.66;;;24.24;58.79
79791;BME280;69278;52.220;5.172;2023-07-09T02:27:45;101734.66;;;24.19;58.71
79791;BME280;69278;52.220;5.172;2023-07-09T02:30:12;101738.81;;;24.15;58.82
79791;BME280;69278;52.220;5.172;2023-07-09T02:32:38;101745.59;;;24.17;59.30
79791;BME280;69278;52.220;5.172;2023-07-09T02:35:08;101744.19;;;24.15;59.49
79791;BME280;69278;52.220;5.172;2023-07-09T02:37:34;101733.13;;;24.03;59.65
79791;BME280;69278;52.220;5.172;2023-07-09T02:40:01;101752.03;;;24.10;59.29
79791;BME280;69278;52.220;5.172;2023-07-09T02:42:28;101744.34;;;24.07;59.76
79791;BME280;69278;52.220;5.172;2023-07-09T02:44:54;101724.44;;;24.01;59.84
79791;BME280;69278;52.220;5.172;2023-07-09T02:47:21;101741.19;;;24.03;60.13
79791;BME280;69278;52.220;5.172;2023-07-09T02:49:48;101744.09;;;24.02;60.17
79791;BME280;69278;52.220;5.172;2023-07-09T02:52:14;101736.25;;;24.00;59.94
79791;BME280;69278;52.220;5.172;2023-07-09T02:54:41;101730.22;;;23.98;59.96
79791;BME280;69278;52.220;5.172;2023-07-09T02:57:07;101732.72;;;24.00;60.32
79791;BME280;69278;52.220;5.172;2023-07-09T02:59:34;101741.81;;;23.99;60.25
79791;BME280;69278;52.220;5.172;2023-07-09T03:02:01;101736.63;;;23.91;60.32
79791;BME280;69278;52.220;5.172;2023-07-09T03:04:28;101746.13;;;23.93;60.36
79791;BME280;69278;52.220;5.172;2023-07-09T03:06:55;101747.19;;;23.92;60.96
79791;BME280;69278;52.220;5.172;2023-07-09T03:09:21;101745.72;;;23.90;60.56
79791;BME280;69278;52.220;5.172;2023-07-09T03:11:47;101751.09;;;23.90;60.71
79791;BME280;69278;52.220;5.172;2023-07-09T03:14:15;101737.41;;;23.78;61.01
79791;BME280;69278;52.220;5.172;2023-07-09T03:16:42;101745.69;;;23.83;60.84
79791;BME280;69278;52.220;5.172;2023-07-09T03:19:08;101736.97;;;23.81;60.93
79791;BME280;69278;52.220;5.172;2023-07-09T03:21:35;101749.00;;;23.85;61.22
79791;BME280;69278;52.220;5.172;2023-07-09T03:24:02;101735.50;;;23.78;60.96
79791;BME280;69278;52.220;5.172;2023-07-09T03:26:28;101747.34;;;23.84;60.89
79791;BME280;69278;52.220;5.172;2023-07-09T03:28:55;101753.78;;;23.83;61.15
79791;BME280;69278;52.220;5.172;2023-07-09T03:31:22;101749.41;;;23.82;60.86
79791;BME280;69278;52.220;5.172;2023-07-09T03:33:50;101755.19;;;23.79;60.92
79791;BME280;69278;52.220;5.172;2023-07-09T03:36:18;101736.72;;;23.69;61.02
79791;BME280;69278;52.220;5.172;2023-07-09T03:38:46;101748.34;;;23.76;61.37
79791;BME280;69278;52.220;5.172;2023-07-09T03:41:13;101744.41;;;23.72;61.41
79791;BME280;69278;52.220;5.172;2023-07-09T03:43:40;101750.78;;;23.71;61.16
79791;BME280;69278;52.220;5.172;2023-07-09T03:46:06;101753.69;;;23.70;61.22
79791;BME280;69278;52.220;5.172;2023-07-09T03:48:33;101755.56;;;23.69;61.42
79791;BME280;69278;52.220;5.172;2023-07-09T03:50:59;101756.38;;;23.70;61.19
79791;BME280;69278;52.220;5.172;2023-07-09T03:53:26;101755.13;;;23.66;61.38
79791;BME280;69278;52.220;5.172;2023-07-09T03:55:54;101753.84;;;23.62;61.50
79791;BME280;69278;52.220;5.172;2023-07-09T03:58:23;101764.22;;;23.65;61.79
79791;BME280;69278;52.220;5.172;2023-07-09T04:00:50;101758.19;;;23.56;61.60
79791;BME280;69278;52.220;5.172;2023-07-09T04:03:16;101758.59;;;23.60;61.38
79791;BME280;69278;52.220;5.172;2023-07-09T04:05:44;101762.75;;;23.62;61.67
79791;BME280;69278;52.220;5.172;2023-07-09T04:08:11;101765.44;;;23.62;61.77
79791;BME280;69278;52.220;5.172;2023-07-09T04:10:37;101748.84;;;23.52;61.56
79791;BME280;69278;52.220;5.172;2023-07-09T04:13:04;101762.97;;;23.61;61.49
79791;BME280;69278;52.220;5.172;2023-07-09T04:15:30;101776.41;;;23.61;61.99
79791;BME280;69278;52.220;5.172;2023-07-09T04:17:57;101769.59;;;23.58;61.58
79791;BME280;69278;52.220;5.172;2023-07-09T04:20:23;101762.53;;;23.57;61.78
79791;BME280;69278;52.220;5.172;2023-07-09T04:22:50;101779.34;;;23.66;61.92
79791;BME280;69278;52.220;5.172;2023-07-09T04:25:17;101773.75;;;23.67;62.08
79791;BME280;69278;52.220;5.172;2023-07-09T04:27:43;101784.31;;;23.69;62.02
79791;BME280;69278;52.220;5.172;2023-07-09T04:30:12;101772.53;;;23.70;61.66
79791;BME280;69278;52.220;5.172;2023-07-09T04:32:39;101762.97;;;23.61;61.90
79791;BME280;69278;52.220;5.172;2023-07-09T04:35:06;101770.28;;;23.73;61.92
79791;BME280;69278;52.220;5.172;2023-07-09T04:37:33;101778.16;;;23.75;61.70
79791;BME280;69278;52.220;5.172;2023-07-09T04:39:59;101772.38;;;23.78;61.72
79791;BME280;69278;52.220;5.172;2023-07-09T04:42:26;101764.47;;;23.70;61.98
79791;BME280;69278;52.220;5.172;2023-07-09T04:44:53;101736.69;;;23.56;61.77
79791;BME280;69278;52.220;5.172;2023-07-09T04:47:19;101770.50;;;23.78;61.72
79791;BME280;69278;52.220;5.172;2023-07-09T04:49:46;101769.25;;;23.81;61.69
79791;BME280;69278;52.220;5.172;2023-07-09T04:52:12;101768.44;;;23.81;61.87
79791;BME280;69278;52.220;5.172;2023-07-09T04:54:41;101756.41;;;23.76;62.14
79791;BME280;69278;52.220;5.172;2023-07-09T04:57:11;101745.47;;;23.78;62.07
79791;BME280;69278;52.220;5.172;2023-07-09T04:59:38;101759.53;;;23.80;61.91
79791;BME280;69278;52.220;5.172;2023-07-09T05:02:05;101755.81;;;23.81;62.26
79791;BME280;69278;52.220;5.172;2023-07-09T05:04:31;101753.53;;;23.78;61.64
79791;BME280;69278;52.220;5.172;2023-07-09T05:06:58;101746.09;;;23.80;62.13
79791;BME280;69278;52.220;5.172;2023-07-09T05:09:25;101750.44;;;23.81;62.39
79791;BME280;69278;52.220;5.172;2023-07-09T05:11:51;101748.56;;;23.82;62.21
79791;BME280;69278;52.220;5.172;2023-07-09T05:14:18;101763.09;;;23.87;62.31
79791;BME280;69278;52.220;5.172;2023-07-09T05:16:45;101758.72;;;23.86;62.52
79791;BME280;69278;52.220;5.172;2023-07-09T05:19:12;101756.88;;;23.87;62.37
79791;BME280;69278;52.220;5.172;2023-07-09T05:21:39;101767.03;;;23.91;62.72
79791;BME280;69278;52.220;5.172;2023-07-09T05:24:05;101763.09;;;23.94;62.48
79791;BME280;69278;52.220;5.172;2023-07-09T05:26:32;101758.78;;;23.93;62.79
79791;BME280;69278;52.220;5.172;2023-07-09T05:28:58;101721.88;;;23.73;62.40
79791;BME280;69278;52.220;5.172;2023-07-09T05:31:25;101745.72;;;23.96;62.41
79791;BME280;69278;52.220;5.172;2023-07-09T05:33:52;101727.09;;;23.88;62.41
79791;BME280;69278;52.220;5.172;2023-07-09T05:36:19;101747.63;;;24.02;62.15
79791;BME280;69278;52.220;5.172;2023-07-09T05:38:46;101747.66;;;24.09;62.12
79791;BME280;69278;52.220;5.172;2023-07-09T05:41:14;101746.84;;;24.08;61.87
79791;BME280;69278;52.220;5.172;2023-07-09T05:43:44;101745.81;;;24.09;62.00
79791;BME280;69278;52.220;5.172;2023-07-09T05:46:12;101704.28;;;23.84;61.69
79791;BME280;69278;52.220;5.172;2023-07-09T05:48:39;101752.44;;;24.13;61.44
79791;BME280;69278;52.220;5.172;2023-07-09T05:51:05;101756.38;;;24.17;61.43
79791;BME280;69278;52.220;5.172;2023-07-09T05:53:32;101755.78;;;24.22;61.81
79791;BME280;69278;52.220;5.172;2023-07-09T05:55:59;101753.91;;;24.22;61.92
79791;BME280;69278;52.220;5.172;2023-07-09T05:58:27;101763.25;;;24.26;61.40
79791;BME280;69278;52.220;5.172;2023-07-09T06:00:54;101760.13;;;24.29;61.11
79791;BME280;69278;52.220;5.172;2023-07-09T06:03:25;101767.41;;;24.35;61.41
79791;BME280;69278;52.220;5.172;2023-07-09T06:05:53;101766.78;;;24.40;61.16
79791;BME280;69278;52.220;5.172;2023-07-09T06:08:20;101778.00;;;24.44;61.10
79791;BME280;69278;52.220;5.172;2023-07-09T06:11:01;101768.47;;;24.48;61.47
79791;BME280;69278;52.220;5.172;2023-07-09T06:13:29;101773.25;;;24.52;61.50
79791;BME280;69278;52.220;5.172;2023-07-09T06:15:59;101755.41;;;24.45;61.38
79791;BME280;69278;52.220;5.172;2023-07-09T06:18:27;101772.44;;;24.58;61.35
79791;BME280;69278;52.220;5.172;2023-07-09T06:21:01;101766.63;;;24.55;61.49
79791;BME280;69278;52.220;5.172;2023-07-09T06:23:28;101778.03;;;24.70;61.41
79791;BME280;69278;52.220;5.172;2023-07-09T06:25:55;101751.28;;;24.55;61.57
79791;BME280;69278;52.220;5.172;2023-07-09T06:28:24;101785.75;;;24.79;61.36
79791;BME280;69278;52.220;5.172;2023-07-09T06:30:51;101785.13;;;24.84;61.58
79791;BME280;69278;52.220;5.172;2023-07-09T06:33:18;101785.31;;;24.89;61.39
79791;BME280;69278;52.220;5.172;2023-07-09T06:35:47;101771.00;;;24.88;60.85
79791;BME280;69278;52.220;5.172;2023-07-09T06:38:14;101789.28;;;24.99;60.46
79791;BME280;69278;52.220;5.172;2023-07-09T06:40:40;101785.72;;;25.05;60.67
79791;BME280;69278;52.220;5.172;2023-07-09T06:43:07;101760.66;;;24.92;60.47
79791;BME280;69278;52.220;5.172;2023-07-09T06:45:34;101788.63;;;25.17;60.31
79791;BME280;69278;52.220;5.172;2023-07-09T06:48:01;101788.81;;;25.22;60.26
79791;BME280;69278;52.220;5.172;2023-07-09T06:50:27;101791.72;;;25.27;60.34
79791;BME280;69278;52.220;5.172;2023-07-09T06:52:54;101794.22;;;25.35;60.19
79791;BME280;69278;52.220;5.172;2023-07-09T06:55:21;101796.06;;;25.41;60.00
79791;BME280;69278;52.220;5.172;2023-07-09T06:57:47;101785.31;;;25.48;59.54
79791;BME280;69278;52.220;5.172;2023-07-09T07:00:14;101795.00;;;25.55;58.91
79791;BME280;69278;52.220;5.172;2023-07-09T07:02:41;101799.81;;;25.60;59.02
79791;BME280;69278;52.220;5.172;2023-07-09T07:05:08;101804.31;;;25.73;59.17
79791;BME280;69278;52.220;5.172;2023-07-09T07:07:35;101789.78;;;25.74;58.50
79791;BME280;69278;52.220;5.172;2023-07-09T07:10:01;101804.28;;;25.86;58.77
79791;BME280;69278;52.220;5.172;2023-07-09T07:12:41;101791.19;;;25.89;58.67
79791;BME280;69278;52.220;5.172;2023-07-09T07:15:08;101803.59;;;25.97;58.80
79791;BME280;69278;52.220;5.172;2023-07-09T07:17:35;101818.72;;;26.04;59.99
79791;BME280;69278;52.220;5.172;2023-07-09T07:20:01;101805.47;;;26.03;60.43
79791;BME280;69278;52.220;5.172;2023-07-09T07:22:28;101813.13;;;26.06;60.43
79791;BME280;69278;52.220;5.172;2023-07-09T07:24:54;101811.69;;;26.03;60.57
79791;BME280;69278;52.220;5.172;2023-07-09T07:27:21;101811.88;;;26.02;60.83
79791;BME280;69278;52.220;5.172;2023-07-09T07:29:47;101816.88;;;26.05;60.50
79791;BME280;69278;52.220;5.172;2023-07-09T07:32:14;101815.59;;;26.07;60.42
79791;BME280;69278;52.220;5.172;2023-07-09T07:34:40;101824.53;;;26.08;60.36
79791;BME280;69278;52.220;5.172;2023-07-09T07:37:07;101799.25;;;25.96;60.63
79791;BME280;69278;52.220;5.172;2023-07-09T07:39:33;101813.75;;;26.08;60.58
79791;BME280;69278;52.220;5.172;2023-07-09T07:42:00;101811.03;;;26.08;60.64
79791;BME280;69278;52.220;5.172;2023-07-09T07:44:26;101812.50;;;26.10;60.31
79791;BME280;69278;52.220;5.172;2023-07-09T07:46:53;101833.25;;;26.16;59.66
79791;BME280;69278;52.220;5.172;2023-07-09T07:49:19;101836.78;;;26.17;58.90
79791;BME280;69278;52.220;5.172;2023-07-09T07:51:46;101833.84;;;26.18;58.28
79791;BME280;69278;52.220;5.172;2023-07-09T07:54:12;101804.81;;;26.14;58.02
79791;BME280;69278;52.220;5.172;2023-07-09T07:56:39;101815.38;;;26.22;58.28
79791;BME280;69278;52.220;5.172;2023-07-09T07:59:06;101818.25;;;26.27;58.48
79791;BME280;69278;52.220;5.172;2023-07-09T08:01:33;101822.56;;;26.34;58.12
79791;BME280;69278;52.220;5.172;2023-07-09T08:04:02;101817.34;;;26.40;57.52
79791;BME280;69278;52.220;5.172;2023-07-09T08:06:29;101827.09;;;26.47;57.86
79791;BME280;69278;52.220;5.172;2023-07-09T08:08:58;101812.91;;;26.52;58.38
79791;BME280;69278;52.220;5.172;2023-07-09T08:11:25;101808.34;;;26.52;57.87
79791;BME280;69278;52.220;5.172;2023-07-09T08:13:51;101809.56;;;26.56;57.99
79791;BME280;69278;52.220;5.172;2023-07-09T08:16:18;101827.94;;;26.72;57.66
79791;BME280;69278;52.220;5.172;2023-07-09T08:18:44;101815.69;;;26.76;57.08
79791;BME280;69278;52.220;5.172;2023-07-09T08:21:11;101811.88;;;26.84;57.15
79791;BME280;69278;52.220;5.172;2023-07-09T08:23:37;101808.53;;;26.88;57.19
79791;BME280;69278;52.220;5.172;2023-07-09T08:26:05;101799.00;;;26.86;56.89
79791;BME280;69278;52.220;5.172;2023-07-09T08:28:33;101805.84;;;26.88;56.21
79791;BME280;69278;52.220;5.172;2023-07-09T08:31:00;101810.56;;;26.93;56.27
79791;BME280;69278;52.220;5.172;2023-07-09T08:33:28;101791.69;;;26.86;56.24
79791;BME280;69278;52.220;5.172;2023-07-09T08:35:54;101800.13;;;26.96;56.43
79791;BME280;69278;52.220;5.172;2023-07-09T08:38:21;101799.97;;;26.91;55.73
79791;BME280;69278;52.220;5.172;2023-07-09T08:41:00;101812.81;;;26.96;53.64
79791;BME280;69278;52.220;5.172;2023-07-09T08:43:34;101772.44;;;26.70;52.92
79791;BME280;69278;52.220;5.172;2023-07-09T08:46:20;101808.81;;;26.80;50.98
79791;BME280;69278;52.220;5.172;2023-07-09T08:48:53;101776.41;;;26.67;50.46
79791;BME280;69278;52.220;5.172;2023-07-09T08:51:48;101811.56;;;26.98;50.58
79791;BME280;69278;52.220;5.172;2023-07-09T08:54:25;101807.03;;;26.92;50.59
79791;BME280;69278;52.220;5.172;2023-07-09T08:56:59;101799.38;;;26.89;51.18
79791;BME280;69278;52.220;5.172;2023-07-09T08:59:28;101800.38;;;26.95;51.44
79791;BME280;69278;52.220;5.172;2023-07-09T09:01:57;101789.97;;;26.92;51.79
79791;BME280;69278;52.220;5.172;2023-07-09T09:04:31;101805.72;;;27.02;52.10
79791;BME280;69278;52.220;5.172;2023-07-09T09:07:16;101799.81;;;27.11;52.31
79791;BME280;69278;52.220;5.172;2023-07-09T09:09:54;101785.16;;;27.19;52.37
79791;BME280;69278;52.220;5.172;2023-07-09T09:12:28;101793.22;;;27.25;51.87
79791;BME280;69278;52.220;5.172;2023-07-09T09:15:28;101800.41;;;27.38;52.18
79791;BME280;69278;52.220;5.172;2023-07-09T09:18:09;101747.59;;;27.11;52.11
79791;BME280;69278;52.220;5.172;2023-07-09T09:20:40;101775.63;;;27.41;52.20
79791;BME280;69278;52.220;5.172;2023-07-09T09:25:37;101779.44;;;27.70;51.59
79791;BME280;69278;52.220;5.172;2023-07-09T09:28:04;101747.91;;;27.63;51.41
79791;BME280;69278;52.220;5.172;2023-07-09T09:30:30;101789.75;;;27.97;51.41
79791;BME280;69278;52.220;5.172;2023-07-09T09:33:10;101746.69;;;27.78;50.52
79791;BME280;69278;52.220;5.172;2023-07-09T09:35:41;101781.25;;;28.12;50.72
79791;BME280;69278;52.220;5.172;2023-07-09T09:38:20;101764.75;;;28.13;51.25
79791;BME280;69278;52.220;5.172;2023-07-09T09:40:47;101755.94;;;28.18;51.34
79791;BME280;69278;52.220;5.172;2023-07-09T09:43:20;101738.72;;;28.12;51.19
79791;BME280;69278;52.220;5.172;2023-07-09T09:45:48;101775.81;;;28.42;51.05
79791;BME280;69278;52.220;5.172;2023-07-09T09:48:30;101771.09;;;28.49;51.07
79791;BME280;69278;52.220;5.172;2023-07-09T09:50:58;101776.78;;;28.59;51.06
79791;BME280;69278;52.220;5.172;2023-07-09T09:53:30;101781.22;;;28.71;50.33
79791;BME280;69278;52.220;5.172;2023-07-09T09:56:04;101774.63;;;28.79;49.54
79791;BME280;69278;52.220;5.172;2023-07-09T09:58:31;101769.22;;;28.79;49.40
79791;BME280;69278;52.220;5.172;2023-07-09T10:00:58;101787.38;;;28.90;48.83
79791;BME280;69278;52.220;5.172;2023-07-09T10:03:37;101774.44;;;28.92;48.42
79791;BME280;69278;52.220;5.172;2023-07-09T10:06:19;101779.59;;;29.05;47.80
79791;BME280;69278;52.220;5.172;2023-07-09T10:14:30;101777.41;;;29.25;47.56
79791;BME280;69278;52.220;5.172;2023-07-09T10:20:00;101765.13;;;29.34;47.52
79791;BME280;69278;52.220;5.172;2023-07-09T10:23:09;101780.56;;;29.45;47.45
79791;BME280;69278;52.220;5.172;2023-07-09T10:25:53;101783.16;;;29.52;48.00
79791;BME280;69278;52.220;5.172;2023-07-09T10:28:53;101785.63;;;29.53;47.80
79791;BME280;69278;52.220;5.172;2023-07-09T10:31:50;101792.75;;;29.43;48.38
79791;BME280;69278;52.220;5.172;2023-07-09T10:34:56;101798.16;;;29.43;48.23
79791;BME280;69278;52.220;5.172;2023-07-09T10:38:14;101791.41;;;29.45;48.21
79791;BME280;69278;52.220;5.172;2023-07-09T10:40:48;101734.66;;;29.09;48.54
79791;BME280;69278;52.220;5.172;2023-07-09T10:43:32;101786.09;;;29.50;48.44
79791;BME280;69278;52.220;5.172;2023-07-09T10:46:03;101778.91;;;29.56;48.55
79791;BME280;69278;52.220;5.172;2023-07-09T10:48:41;101767.56;;;29.59;47.98
79791;BME280;69278;52.220;5.172;2023-07-09T10:51:28;101801.19;;;29.81;48.24
79791;BME280;69278;52.220;5.172;2023-07-09T10:54:26;101807.69;;;29.80;48.61
79791;BME280;69278;52.220;5.172;2023-07-09T10:57:00;101771.22;;;29.65;47.35
79791;BME280;69278;52.220;5.172;2023-07-09T10:59:33;101780.31;;;29.58;47.36
79791;BME280;69278;52.220;5.172;2023-07-09T11:02:29;101783.25;;;29.69;45.57
79791;BME280;69278;52.220;5.172;2023-07-09T11:05:02;101793.06;;;29.58;45.63
79791;BME280;69278;52.220;5.172;2023-07-09T11:10:27;101758.84;;;28.87;46.03
79791;BME280;69278;52.220;5.172;2023-07-09T11:12:59;101814.28;;;28.91;46.03
79791;BME280;69278;52.220;5.172;2023-07-09T11:15:32;101806.22;;;28.73;45.57
79791;BME280;69278;52.220;5.172;2023-07-09T11:18:05;101796.53;;;28.66;44.54
79791;BME280;69278;52.220;5.172;2023-07-09T11:20:41;101794.53;;;28.73;44.24
79791;BME280;69278;52.220;5.172;2023-07-09T11:23:23;101741.66;;;28.52;43.93
79791;BME280;69278;52.220;5.172;2023-07-09T11:26:13;101779.94;;;28.85;43.57
79791;BME280;69278;52.220;5.172;2023-07-09T11:28:46;101769.94;;;28.86;42.72
79791;BME280;69278;52.220;5.172;2023-07-09T11:31:24;101773.94;;;28.95;42.58
79791;BME280;69278;52.220;5.172;2023-07-09T11:34:20;101779.97;;;29.09;42.58
79791;BME280;69278;52.220;5.172;2023-07-09T11:36:58;101771.25;;;29.18;42.48
79791;BME280;69278;52.220;5.172;2023-07-09T11:39:30;101778.13;;;29.21;42.62
79791;BME280;69278;52.220;5.172;2023-07-09T11:41:58;101763.25;;;29.23;42.79
79791;BME280;69278;52.220;5.172;2023-07-09T11:44:27;101776.31;;;29.26;42.28
79791;BME280;69278;52.220;5.172;2023-07-09T11:47:19;101786.13;;;29.27;42.63
79791;BME280;69278;52.220;5.172;2023-07-09T11:50:16;101790.13;;;29.36;43.01
79791;BME280;69278;52.220;5.172;2023-07-09T11:53:20;101784.59;;;29.43;42.87
79791;BME280;69278;52.220;5.172;2023-07-09T11:55:51;101785.78;;;29.35;42.10
79791;BME280;69278;52.220;5.172;2023-07-09T11:58:18;101774.44;;;29.27;42.07
79791;BME280;69278;52.220;5.172;2023-07-09T12:00:54;101797.44;;;29.36;41.33
79791;BME280;69278;52.220;5.172;2023-07-09T12:03:34;101756.97;;;29.11;41.23
79791;BME280;69278;52.220;5.172;2023-07-09T12:06:15;101775.00;;;29.17;41.32
79791;BME280;69278;52.220;5.172;2023-07-09T12:08:43;101797.44;;;29.47;41.56
79791;BME280;69278;52.220;5.172;2023-07-09T12:11:29;101809.47;;;29.51;41.61
79791;BME280;69278;52.220;5.172;2023-07-09T12:14:11;101820.78;;;29.72;41.24
79791;BME280;69278;52.220;5.172;2023-07-09T12:16:40;101829.88;;;29.89;41.53
79791;BME280;69278;52.220;5.172;2023-07-09T12:19:11;101829.22;;;30.10;40.88
79791;BME280;69278;52.220;5.172;2023-07-09T12:21:42;101825.72;;;30.26;40.66
79791;BME280;69278;52.220;5.172;2023-07-09T12:24:20;101811.88;;;30.39;40.91
79791;BME280;69278;52.220;5.172;2023-07-09T12:26:49;101829.28;;;30.27;40.66
79791;BME280;69278;52.220;5.172;2023-07-09T12:29:15;101831.97;;;29.98;41.60
79791;BME280;69278;52.220;5.172;2023-07-09T12:31:42;101831.19;;;29.86;42.28
79791;BME280;69278;52.220;5.172;2023-07-09T12:34:13;101822.34;;;30.19;42.40
79791;BME280;69278;52.220;5.172;2023-07-09T12:36:48;101832.94;;;30.32;43.49
79791;BME280;69278;52.220;5.172;2023-07-09T12:39:18;101851.66;;;30.17;44.27
79791;BME280;69278;52.220;5.172;2023-07-09T12:41:46;101863.50;;;29.99;45.45
79791;BME280;69278;52.220;5.172;2023-07-09T12:44:21;101840.38;;;29.74;45.78
79791;BME280;69278;52.220;5.172;2023-07-09T12:46:49;101847.69;;;29.85;44.68
79791;BME280;69278;52.220;5.172;2023-07-09T12:49:28;101847.16;;;30.11;43.98
79791;BME280;69278;52.220;5.172;2023-07-09T12:52:00;101848.88;;;30.00;44.38
79791;BME280;69278;52.220;5.172;2023-07-09T12:54:28;101834.41;;;30.11;43.29
79791;BME280;69278;52.220;5.172;2023-07-09T12:56:58;101847.56;;;30.31;43.09
79791;BME280;69278;52.220;5.172;2023-07-09T12:59:27;101852.97;;;30.54;42.96
79791;BME280;69278;52.220;5.172;2023-07-09T13:04:33;101800.72;;;30.69;41.80
79791;BME280;69278;52.220;5.172;2023-07-09T13:07:02;101841.59;;;30.74;40.91
79791;BME280;69278;52.220;5.172;2023-07-09T13:09:30;101804.66;;;30.33;40.04
79791;BME280;69278;52.220;5.172;2023-07-09T13:11:57;101825.34;;;30.62;41.55
79791;BME280;69278;52.220;5.172;2023-07-09T13:14:30;101832.22;;;30.81;40.97
79791;BME280;69278;52.220;5.172;2023-07-09T13:17:04;101831.25;;;30.88;41.25
79791;BME280;69278;52.220;5.172;2023-07-09T13:19:31;101825.53;;;30.72;41.56
79791;BME280;69278;52.220;5.172;2023-07-09T13:21:58;101830.69;;;30.57;42.43
79791;BME280;69278;52.220;5.172;2023-07-09T13:24:27;101800.78;;;30.29;43.05
79791;BME280;69278;52.220;5.172;2023-07-09T13:26:56;101841.34;;;30.59;42.45
79791;BME280;69278;52.220;5.172;2023-07-09T13:29:26;101802.72;;;30.17;43.00